To NAV CANADA Home Page Login to a new session Search on AWWS site Disclaimer Vers la page française équivalente Tips FAQ What's new on the site To the Forecasts and Observations / NOTAM section To "File a Flight Plan" website Publications and other links Update of the User's profile FIC Telephone Numbers My Weather Data Folder Route Weather Data Regional Weather Data Local Weather Data To the Forecasts and Observations / NOTAM section
Request Generated 02/23/2020 at 10:47:22 UTC . Weather information available at that time is displayed.

METAR/TAF

KINGSTON/ON    

LWIS CYGK 231000Z AUTO 22007KT 00/M02 A3008=
LWIS CYGK 230900Z AUTO 19005KT M00/M02 A3007=
LWIS CYGK 230800Z AUTO 22005KT 00/M02 A3008=

*** REMARK        : Forecast period has ended; this was the last TAF issued
*** REMARQUE : La période de prévision est échue; ceci était le dernier TAF qui a été émis
TAF CYGK 230141Z 2302/2304 22008KT P6SM SKC
RMK NXT FCST WILL BE ISSUED AT 231245Z=
Your time UTC time
Weather data provided by Environment Canada and NAV CANADA